Airfield :
LOGIN :

Register | Disclaimer

   EN    FR    IT 

 










Legend :    VFR   Marginal VFR   IFR   Intensive IFR   Very Intensive IFR
Visi :
Ceiling :
>= 8 km
>= 3000ft
5 to 8 km
1000 to 3000 ft
1500m to 5 km
500 to 1000 ft
800 to 1500m
200 to 500 ft
< 800m
< 200 ft
Symbols :   Thunderstorms  Fog  Heavy snow  Heavy precipitations  Wind > 20 kt
SIGMETs :     Misc.  Thunderstorms  Icing  Turbulence  Mountain Waves  Volcanic Ashes






- Airport Elevation : 22 ft
- IATA code : TUN


DTTA - Tunis Carthage

CURRENT METAR :
  • 271130Z 28007KT 230V330 9999 FEW026 SCT040 17/05 Q1020

EXPIRED METARs :
  • 271100Z 29010KT 260V340 9999 FEW026 SCT040 17/06 Q1021
  • 271030Z 31010KT 260V340 9999 FEW026 17/06 Q1021
  • 271000Z 30010KT 260V330 9999 FEW026 17/05 Q1021
  • 270930Z 29011KT 260V330 9999 FEW026 16/06 Q1021
  • 270900Z 28009KT 250V310 9999 FEW026 16/07 Q1020

TAF TAF DTTA
Valid from the 27 at 12:00 until the 28 at 12:00 UTC


271100Z 2712/2812 30010KT 9999 SCT026
BECMG 2718/2720 23004KT
BECMG 2807/2809 28017KT



MET'MAP, your aeronautical weather chart ! - Copyright ORBIFLY December 2007 - Disclaimer

ORBIFLY MET'MAP TEAM :

Programming & Development : Alexandra Zaïnal
Concept & original design : Baudouin d'Aumeries
Assistance for programming : Marc-Olivier Méhu
Technical & hardware support : Manuel Goepfert

Contact : metmap@orbifly.com




SOURCES & CREDITS :

   NOAA